sensor_id;sensor_type;location;lat;lon;timestamp;P1;durP1;ratioP1;P2;durP2;ratioP2
81273;SDS011;70753;47.908;11.274;2023-12-20T00:00:16;4.28;;;1.70;;
81273;SDS011;70753;47.908;11.274;2023-12-20T00:02:42;4.43;;;1.67;;
81273;SDS011;70753;47.908;11.274;2023-12-20T00:05:07;3.90;;;1.63;;
81273;SDS011;70753;47.908;11.274;2023-12-20T00:07:34;3.28;;;1.50;;
81273;SDS011;70753;47.908;11.274;2023-12-20T00:10:00;3.97;;;2.03;;
81273;SDS011;70753;47.908;11.274;2023-12-20T00:12:25;3.40;;;1.98;;
81273;SDS011;70753;47.908;11.274;2023-12-20T00:14:50;3.60;;;1.67;;
81273;SDS011;70753;47.908;11.274;2023-12-20T00:17:16;4.68;;;1.90;;
81273;SDS011;70753;47.908;11.274;2023-12-20T00:19:41;3.97;;;1.50;;
81273;SDS011;70753;47.908;11.274;2023-12-20T00:22:06;3.70;;;1.90;;
81273;SDS011;70753;47.908;11.274;2023-12-20T00:24:33;4.85;;;1.58;;
81273;SDS011;70753;47.908;11.274;2023-12-20T00:26:59;4.22;;;1.80;;
81273;SDS011;70753;47.908;11.274;2023-12-20T00:29:24;6.35;;;1.80;;
81273;SDS011;70753;47.908;11.274;2023-12-20T00:31:50;4.80;;;1.77;;
81273;SDS011;70753;47.908;11.274;2023-12-20T00:34:16;4.25;;;1.75;;
81273;SDS011;70753;47.908;11.274;2023-12-20T00:36:42;6.40;;;1.80;;
81273;SDS011;70753;47.908;11.274;2023-12-20T00:39:08;4.53;;;1.83;;
81273;SDS011;70753;47.908;11.274;2023-12-20T00:41:35;3.63;;;1.83;;
81273;SDS011;70753;47.908;11.274;2023-12-20T00:44:00;4.97;;;1.95;;
81273;SDS011;70753;47.908;11.274;2023-12-20T00:46:25;5.20;;;1.98;;
81273;SDS011;70753;47.908;11.274;2023-12-20T00:48:51;4.47;;;2.00;;
81273;SDS011;70753;47.908;11.274;2023-12-20T00:51:16;4.50;;;2.03;;
81273;SDS011;70753;47.908;11.274;2023-12-20T00:53:42;4.82;;;2.08;;
81273;SDS011;70753;47.908;11.274;2023-12-20T00:56:07;4.22;;;2.30;;
81273;SDS011;70753;47.908;11.274;2023-12-20T00:58:34;4.18;;;2.15;;
81273;SDS011;70753;47.908;11.274;2023-12-20T01:00:59;4.03;;;1.90;;
81273;SDS011;70753;47.908;11.274;2023-12-20T01:03:24;4.45;;;2.00;;
81273;SDS011;70753;47.908;11.274;2023-12-20T01:05:50;4.93;;;2.20;;
81273;SDS011;70753;47.908;11.274;2023-12-20T01:08:16;4.35;;;1.95;;
81273;SDS011;70753;47.908;11.274;2023-12-20T01:10:41;4.65;;;2.13;;
81273;SDS011;70753;47.908;11.274;2023-12-20T01:13:06;4.22;;;1.80;;
81273;SDS011;70753;47.908;11.274;2023-12-20T01:15:33;5.95;;;1.90;;
81273;SDS011;70753;47.908;11.274;2023-12-20T01:17:58;4.60;;;2.30;;
81273;SDS011;70753;47.908;11.274;2023-12-20T01:20:24;4.03;;;1.90;;
81273;SDS011;70753;47.908;11.274;2023-12-20T01:22:49;5.10;;;2.20;;
81273;SDS011;70753;47.908;11.274;2023-12-20T01:25:15;5.57;;;2.05;;
81273;SDS011;70753;47.908;11.274;2023-12-20T01:27:40;4.15;;;2.10;;
81273;SDS011;70753;47.908;11.274;2023-12-20T01:30:06;3.67;;;1.92;;
81273;SDS011;70753;47.908;11.274;2023-12-20T01:32:34;3.92;;;2.00;;
81273;SDS011;70753;47.908;11.274;2023-12-20T01:34:59;4.35;;;2.05;;
81273;SDS011;70753;47.908;11.274;2023-12-20T01:37:24;5.13;;;2.17;;
81273;SDS011;70753;47.908;11.274;2023-12-20T01:39:50;5.28;;;2.30;;
81273;SDS011;70753;47.908;11.274;2023-12-20T01:42:15;4.20;;;2.10;;
81273;SDS011;70753;47.908;11.274;2023-12-20T01:44:40;5.22;;;2.17;;
81273;SDS011;70753;47.908;11.274;2023-12-20T01:47:06;4.65;;;2.10;;
81273;SDS011;70753;47.908;11.274;2023-12-20T01:49:35;4.00;;;1.98;;
81273;SDS011;70753;47.908;11.274;2023-12-20T01:52:00;4.13;;;2.20;;
81273;SDS011;70753;47.908;11.274;2023-12-20T01:54:26;4.93;;;2.10;;
81273;SDS011;70753;47.908;11.274;2023-12-20T01:56:52;5.00;;;1.98;;
81273;SDS011;70753;47.908;11.274;2023-12-20T01:59:18;4.22;;;2.20;;
81273;SDS011;70753;47.908;11.274;2023-12-20T02:01:45;4.63;;;2.10;;
81273;SDS011;70753;47.908;11.274;2023-12-20T02:04:11;4.55;;;2.50;;
81273;SDS011;70753;47.908;11.274;2023-12-20T02:06:38;5.10;;;2.55;;
81273;SDS011;70753;47.908;11.274;2023-12-20T02:09:05;4.60;;;2.13;;
81273;SDS011;70753;47.908;11.274;2023-12-20T02:11:30;4.57;;;2.13;;
81273;SDS011;70753;47.908;11.274;2023-12-20T02:13:56;4.68;;;2.00;;
81273;SDS011;70753;47.908;11.274;2023-12-20T02:16:22;4.22;;;2.17;;
81273;SDS011;70753;47.908;11.274;2023-12-20T02:18:47;4.75;;;2.25;;
81273;SDS011;70753;47.908;11.274;2023-12-20T02:21:13;4.35;;;2.17;;
81273;SDS011;70753;47.908;11.274;2023-12-20T02:23:41;5.15;;;2.28;;
81273;SDS011;70753;47.908;11.274;2023-12-20T02:26:06;4.68;;;2.20;;
81273;SDS011;70753;47.908;11.274;2023-12-20T02:28:32;4.55;;;1.98;;
81273;SDS011;70753;47.908;11.274;2023-12-20T02:30:58;4.20;;;2.22;;
81273;SDS011;70753;47.908;11.274;2023-12-20T02:33:23;4.18;;;1.90;;
81273;SDS011;70753;47.908;11.274;2023-12-20T02:35:49;4.07;;;1.80;;
81273;SDS011;70753;47.908;11.274;2023-12-20T02:38:14;3.22;;;1.90;;
81273;SDS011;70753;47.908;11.274;2023-12-20T02:40:41;3.95;;;1.90;;
81273;SDS011;70753;47.908;11.274;2023-12-20T02:43:07;3.50;;;1.60;;
81273;SDS011;70753;47.908;11.274;2023-12-20T02:45:32;3.50;;;1.40;;
81273;SDS011;70753;47.908;11.274;2023-12-20T02:47:58;3.78;;;1.50;;
81273;SDS011;70753;47.908;11.274;2023-12-20T02:50:23;3.33;;;1.40;;
81273;SDS011;70753;47.908;11.274;2023-12-20T02:52:48;3.63;;;1.70;;
81273;SDS011;70753;47.908;11.274;2023-12-20T02:55:14;2.92;;;1.40;;
81273;SDS011;70753;47.908;11.274;2023-12-20T02:57:40;4.47;;;1.70;;
81273;SDS011;70753;47.908;11.274;2023-12-20T03:00:06;3.08;;;1.40;;
81273;SDS011;70753;47.908;11.274;2023-12-20T03:02:32;3.00;;;1.33;;
81273;SDS011;70753;47.908;11.274;2023-12-20T03:04:58;2.92;;;1.27;;
81273;SDS011;70753;47.908;11.274;2023-12-20T03:07:23;3.03;;;1.10;;
81273;SDS011;70753;47.908;11.274;2023-12-20T03:09:48;2.90;;;1.30;;
81273;SDS011;70753;47.908;11.274;2023-12-20T03:12:14;3.22;;;1.35;;
81273;SDS011;70753;47.908;11.274;2023-12-20T03:14:40;2.85;;;1.15;;
81273;SDS011;70753;47.908;11.274;2023-12-20T03:17:07;3.03;;;1.40;;
81273;SDS011;70753;47.908;11.274;2023-12-20T03:19:32;3.55;;;1.20;;
81273;SDS011;70753;47.908;11.274;2023-12-20T03:21:57;3.22;;;1.42;;
81273;SDS011;70753;47.908;11.274;2023-12-20T03:24:25;3.50;;;1.60;;
81273;SDS011;70753;47.908;11.274;2023-12-20T03:26:50;2.70;;;1.10;;
81273;SDS011;70753;47.908;11.274;2023-12-20T03:29:16;2.60;;;1.02;;
81273;SDS011;70753;47.908;11.274;2023-12-20T03:31:43;2.70;;;1.20;;
81273;SDS011;70753;47.908;11.274;2023-12-20T03:34:08;2.20;;;1.08;;
81273;SDS011;70753;47.908;11.274;2023-12-20T03:36:33;2.42;;;1.02;;
81273;SDS011;70753;47.908;11.274;2023-12-20T03:38:59;3.08;;;1.20;;
81273;SDS011;70753;47.908;11.274;2023-12-20T03:41:24;2.30;;;0.98;;
81273;SDS011;70753;47.908;11.274;2023-12-20T03:43:50;1.40;;;0.82;;
81273;SDS011;70753;47.908;11.274;2023-12-20T03:46:15;2.58;;;1.10;;
81273;SDS011;70753;47.908;11.274;2023-12-20T03:48:42;2.00;;;0.90;;
81273;SDS011;70753;47.908;11.274;2023-12-20T03:51:07;2.92;;;1.00;;
81273;SDS011;70753;47.908;11.274;2023-12-20T03:53:32;3.17;;;1.00;;
81273;SDS011;70753;47.908;11.274;2023-12-20T03:55:58;2.38;;;0.93;;
81273;SDS011;70753;47.908;11.274;2023-12-20T03:58:24;1.83;;;0.90;;
81273;SDS011;70753;47.908;11.274;2023-12-20T04:00:49;2.63;;;1.00;;
81273;SDS011;70753;47.908;11.274;2023-12-20T04:03:14;1.88;;;0.90;;
81273;SDS011;70753;47.908;11.274;2023-12-20T04:05:42;2.70;;;1.00;;
81273;SDS011;70753;47.908;11.274;2023-12-20T04:08:07;2.83;;;1.20;;
81273;SDS011;70753;47.908;11.274;2023-12-20T04:10:33;1.83;;;0.98;;
81273;SDS011;70753;47.908;11.274;2023-12-20T04:12:58;2.63;;;1.00;;
81273;SDS011;70753;47.908;11.274;2023-12-20T04:15:24;2.55;;;1.00;;
81273;SDS011;70753;47.908;11.274;2023-12-20T04:17:50;1.75;;;0.93;;
81273;SDS011;70753;47.908;11.274;2023-12-20T04:20:15;2.03;;;1.00;;
81273;SDS011;70753;47.908;11.274;2023-12-20T04:22:42;3.13;;;1.15;;
81273;SDS011;70753;47.908;11.274;2023-12-20T04:25:09;2.67;;;1.20;;
81273;SDS011;70753;47.908;11.274;2023-12-20T04:27:34;2.90;;;1.17;;
81273;SDS011;70753;47.908;11.274;2023-12-20T04:29:59;2.03;;;1.00;;
81273;SDS011;70753;47.908;11.274;2023-12-20T04:32:25;1.90;;;0.80;;
81273;SDS011;70753;47.908;11.274;2023-12-20T04:34:50;3.15;;;1.13;;
81273;SDS011;70753;47.908;11.274;2023-12-20T04:37:15;3.13;;;1.30;;
81273;SDS011;70753;47.908;11.274;2023-12-20T04:39:42;3.67;;;1.10;;
81273;SDS011;70753;47.908;11.274;2023-12-20T04:42:08;2.47;;;1.15;;
81273;SDS011;70753;47.908;11.274;2023-12-20T04:44:33;2.50;;;1.20;;
81273;SDS011;70753;47.908;11.274;2023-12-20T04:46:58;2.08;;;1.05;;
81273;SDS011;70753;47.908;11.274;2023-12-20T04:49:24;3.05;;;1.20;;
81273;SDS011;70753;47.908;11.274;2023-12-20T04:51:49;3.08;;;1.13;;
81273;SDS011;70753;47.908;11.274;2023-12-20T04:54:15;3.17;;;1.40;;
81273;SDS011;70753;47.908;11.274;2023-12-20T04:56:41;3.00;;;1.30;;
81273;SDS011;70753;47.908;11.274;2023-12-20T04:59:07;2.70;;;1.10;;
81273;SDS011;70753;47.908;11.274;2023-12-20T05:01:32;2.40;;;1.10;;
81273;SDS011;70753;47.908;11.274;2023-12-20T05:03:58;2.97;;;1.30;;
81273;SDS011;70753;47.908;11.274;2023-12-20T05:06:23;2.50;;;1.33;;
81273;SDS011;70753;47.908;11.274;2023-12-20T05:08:48;2.50;;;1.25;;
81273;SDS011;70753;47.908;11.274;2023-12-20T05:11:14;2.85;;;1.20;;
81273;SDS011;70753;47.908;11.274;2023-12-20T05:13:41;3.40;;;1.52;;
81273;SDS011;70753;47.908;11.274;2023-12-20T05:16:06;2.30;;;1.08;;
81273;SDS011;70753;47.908;11.274;2023-12-20T05:18:32;2.83;;;1.15;;
81273;SDS011;70753;47.908;11.274;2023-12-20T05:20:57;3.03;;;1.33;;
81273;SDS011;70753;47.908;11.274;2023-12-20T05:23:23;2.58;;;1.40;;
81273;SDS011;70753;47.908;11.274;2023-12-20T05:25:48;2.97;;;1.20;;
81273;SDS011;70753;47.908;11.274;2023-12-20T05:28:14;2.10;;;1.08;;
81273;SDS011;70753;47.908;11.274;2023-12-20T05:30:42;2.88;;;1.33;;
81273;SDS011;70753;47.908;11.274;2023-12-20T05:33:07;4.25;;;1.33;;
81273;SDS011;70753;47.908;11.274;2023-12-20T05:35:32;2.97;;;1.20;;
81273;SDS011;70753;47.908;11.274;2023-12-20T05:37:58;2.40;;;1.35;;
81273;SDS011;70753;47.908;11.274;2023-12-20T05:40:24;2.47;;;1.13;;
81273;SDS011;70753;47.908;11.274;2023-12-20T05:42:49;3.55;;;1.38;;
81273;SDS011;70753;47.908;11.274;2023-12-20T05:45:15;2.88;;;1.30;;
81273;SDS011;70753;47.908;11.274;2023-12-20T05:47:42;3.25;;;1.30;;
81273;SDS011;70753;47.908;11.274;2023-12-20T05:50:08;3.30;;;1.23;;
81273;SDS011;70753;47.908;11.274;2023-12-20T05:52:33;2.70;;;1.02;;
81273;SDS011;70753;47.908;11.274;2023-12-20T05:54:59;1.92;;;1.13;;
81273;SDS011;70753;47.908;11.274;2023-12-20T05:57:24;3.70;;;1.30;;
81273;SDS011;70753;47.908;11.274;2023-12-20T05:59:50;1.55;;;0.75;;
81273;SDS011;70753;47.908;11.274;2023-12-20T06:02:15;3.22;;;1.10;;
81273;SDS011;70753;47.908;11.274;2023-12-20T06:04:43;2.40;;;1.00;;
81273;SDS011;70753;47.908;11.274;2023-12-20T06:07:08;2.67;;;1.15;;
81273;SDS011;70753;47.908;11.274;2023-12-20T06:09:33;3.47;;;1.50;;
81273;SDS011;70753;47.908;11.274;2023-12-20T06:11:59;1.92;;;1.10;;
81273;SDS011;70753;47.908;11.274;2023-12-20T06:14:24;2.40;;;1.10;;
81273;SDS011;70753;47.908;11.274;2023-12-20T06:16:49;2.20;;;1.00;;
81273;SDS011;70753;47.908;11.274;2023-12-20T06:19:16;2.38;;;1.02;;
81273;SDS011;70753;47.908;11.274;2023-12-20T06:21:43;2.45;;;1.10;;
81273;SDS011;70753;47.908;11.274;2023-12-20T06:24:08;2.35;;;1.15;;
81273;SDS011;70753;47.908;11.274;2023-12-20T06:26:33;2.25;;;1.08;;
81273;SDS011;70753;47.908;11.274;2023-12-20T06:28:59;2.15;;;1.00;;
81273;SDS011;70753;47.908;11.274;2023-12-20T06:31:24;2.50;;;1.33;;
81273;SDS011;70753;47.908;11.274;2023-12-20T06:33:49;2.75;;;1.15;;
81273;SDS011;70753;47.908;11.274;2023-12-20T06:36:15;2.17;;;1.02;;
81273;SDS011;70753;47.908;11.274;2023-12-20T06:38:42;2.40;;;1.15;;
81273;SDS011;70753;47.908;11.274;2023-12-20T06:41:07;2.75;;;1.10;;
81273;SDS011;70753;47.908;11.274;2023-12-20T06:43:32;2.15;;;0.90;;
81273;SDS011;70753;47.908;11.274;2023-12-20T06:45:58;2.53;;;1.20;;
81273;SDS011;70753;47.908;11.274;2023-12-20T06:48:23;2.22;;;1.10;;
81273;SDS011;70753;47.908;11.274;2023-12-20T06:50:48;1.60;;;0.82;;
81273;SDS011;70753;47.908;11.274;2023-12-20T06:53:14;1.75;;;0.95;;
81273;SDS011;70753;47.908;11.274;2023-12-20T06:55:41;2.05;;;1.00;;
81273;SDS011;70753;47.908;11.274;2023-12-20T06:58:06;2.17;;;0.95;;
81273;SDS011;70753;47.908;11.274;2023-12-20T07:00:33;2.42;;;1.02;;
81273;SDS011;70753;47.908;11.274;2023-12-20T07:02:58;2.40;;;1.10;;
81273;SDS011;70753;47.908;11.274;2023-12-20T07:05:23;1.63;;;0.90;;
81273;SDS011;70753;47.908;11.274;2023-12-20T07:07:49;1.67;;;0.80;;
81273;SDS011;70753;47.908;11.274;2023-12-20T07:10:14;2.75;;;1.10;;
81273;SDS011;70753;47.908;11.274;2023-12-20T07:12:42;1.88;;;0.85;;
81273;SDS011;70753;47.908;11.274;2023-12-20T07:15:07;1.63;;;0.82;;
81273;SDS011;70753;47.908;11.274;2023-12-20T07:17:33;1.48;;;0.90;;
81273;SDS011;70753;47.908;11.274;2023-12-20T07:19:59;1.77;;;0.80;;
81273;SDS011;70753;47.908;11.274;2023-12-20T07:22:25;1.42;;;0.85;;
81273;SDS011;70753;47.908;11.274;2023-12-20T07:24:50;2.08;;;0.90;;
81273;SDS011;70753;47.908;11.274;2023-12-20T07:27:15;1.90;;;0.90;;
81273;SDS011;70753;47.908;11.274;2023-12-20T07:29:42;1.52;;;0.93;;
81273;SDS011;70753;47.908;11.274;2023-12-20T07:32:10;2.17;;;1.00;;
81273;SDS011;70753;47.908;11.274;2023-12-20T07:34:35;1.95;;;1.02;;
81273;SDS011;70753;47.908;11.274;2023-12-20T07:37:00;1.98;;;1.00;;
81273;SDS011;70753;47.908;11.274;2023-12-20T07:39:26;2.13;;;1.00;;
81273;SDS011;70753;47.908;11.274;2023-12-20T07:41:51;2.25;;;1.10;;
81273;SDS011;70753;47.908;11.274;2023-12-20T07:44:17;2.30;;;0.93;;
81273;SDS011;70753;47.908;11.274;2023-12-20T07:46:43;2.63;;;1.10;;
81273;SDS011;70753;47.908;11.274;2023-12-20T07:49:09;1.67;;;0.93;;
81273;SDS011;70753;47.908;11.274;2023-12-20T07:51:34;2.10;;;0.95;;
81273;SDS011;70753;47.908;11.274;2023-12-20T07:54:00;1.40;;;1.00;;
81273;SDS011;70753;47.908;11.274;2023-12-20T07:56:26;3.30;;;0.95;;
81273;SDS011;70753;47.908;11.274;2023-12-20T07:58:51;2.28;;;1.00;;
81273;SDS011;70753;47.908;11.274;2023-12-20T08:01:17;1.77;;;1.00;;
81273;SDS011;70753;47.908;11.274;2023-12-20T08:03:44;1.92;;;1.02;;
81273;SDS011;70753;47.908;11.274;2023-12-20T08:06:09;2.08;;;0.95;;
81273;SDS011;70753;47.908;11.274;2023-12-20T08:08:35;0.85;;;0.73;;
81273;SDS011;70753;47.908;11.274;2023-12-20T08:11:00;2.03;;;0.93;;
81273;SDS011;70753;47.908;11.274;2023-12-20T08:13:26;1.42;;;0.80;;
81273;SDS011;70753;47.908;11.274;2023-12-20T08:15:51;1.63;;;0.80;;
81273;SDS011;70753;47.908;11.274;2023-12-20T08:18:16;1.63;;;0.85;;
81273;SDS011;70753;47.908;11.274;2023-12-20T08:20:43;1.70;;;0.90;;
81273;SDS011;70753;47.908;11.274;2023-12-20T08:23:09;2.22;;;1.00;;
81273;SDS011;70753;47.908;11.274;2023-12-20T08:25:34;1.55;;;0.82;;
81273;SDS011;70753;47.908;11.274;2023-12-20T08:28:00;2.13;;;0.90;;
81273;SDS011;70753;47.908;11.274;2023-12-20T08:30:26;1.70;;;0.80;;
81273;SDS011;70753;47.908;11.274;2023-12-20T08:32:51;1.92;;;0.90;;
81273;SDS011;70753;47.908;11.274;2023-12-20T08:35:16;2.10;;;0.93;;
81273;SDS011;70753;47.908;11.274;2023-12-20T08:37:43;1.58;;;0.88;;
81273;SDS011;70753;47.908;11.274;2023-12-20T08:40:09;2.42;;;0.80;;
81273;SDS011;70753;47.908;11.274;2023-12-20T08:42:35;0.93;;;0.60;;
81273;SDS011;70753;47.908;11.274;2023-12-20T08:45:00;2.40;;;0.80;;
81273;SDS011;70753;47.908;11.274;2023-12-20T08:47:26;1.15;;;0.75;;
81273;SDS011;70753;47.908;11.274;2023-12-20T08:49:52;0.80;;;0.70;;
81273;SDS011;70753;47.908;11.274;2023-12-20T08:52:17;1.10;;;0.80;;
81273;SDS011;70753;47.908;11.274;2023-12-20T08:54:44;3.63;;;1.50;;
81273;SDS011;70753;47.908;11.274;2023-12-20T08:57:10;4.28;;;0.93;;
81273;SDS011;70753;47.908;11.274;2023-12-20T08:59:35;1.25;;;0.80;;
81273;SDS011;70753;47.908;11.274;2023-12-20T09:02:00;1.83;;;0.82;;
81273;SDS011;70753;47.908;11.274;2023-12-20T09:04:26;1.35;;;0.75;;
81273;SDS011;70753;47.908;11.274;2023-12-20T09:06:51;1.52;;;0.80;;
81273;SDS011;70753;47.908;11.274;2023-12-20T09:09:17;1.67;;;0.80;;
81273;SDS011;70753;47.908;11.274;2023-12-20T09:11:43;1.85;;;0.80;;
81273;SDS011;70753;47.908;11.274;2023-12-20T09:14:09;2.08;;;0.95;;
81273;SDS011;70753;47.908;11.274;2023-12-20T09:16:34;1.42;;;0.80;;
81273;SDS011;70753;47.908;11.274;2023-12-20T09:18:59;1.42;;;0.77;;
81273;SDS011;70753;47.908;11.274;2023-12-20T09:21:25;1.08;;;0.70;;
81273;SDS011;70753;47.908;11.274;2023-12-20T09:23:50;0.88;;;0.60;;
81273;SDS011;70753;47.908;11.274;2023-12-20T09:26:16;0.98;;;0.65;;
81273;SDS011;70753;47.908;11.274;2023-12-20T09:28:42;1.35;;;0.68;;
81273;SDS011;70753;47.908;11.274;2023-12-20T09:31:09;1.02;;;0.65;;
81273;SDS011;70753;47.908;11.274;2023-12-20T09:33:34;1.70;;;0.80;;
81273;SDS011;70753;47.908;11.274;2023-12-20T09:36:00;1.13;;;0.70;;
81273;SDS011;70753;47.908;11.274;2023-12-20T09:38:25;0.75;;;0.60;;
81273;SDS011;70753;47.908;11.274;2023-12-20T09:40:51;1.05;;;0.63;;
81273;SDS011;70753;47.908;11.274;2023-12-20T09:43:18;0.77;;;0.55;;
81273;SDS011;70753;47.908;11.274;2023-12-20T09:45:46;1.33;;;0.70;;
81273;SDS011;70753;47.908;11.274;2023-12-20T09:48:15;0.88;;;0.55;;
81273;SDS011;70753;47.908;11.274;2023-12-20T09:50:43;1.27;;;0.70;;
81273;SDS011;70753;47.908;11.274;2023-12-20T09:53:09;1.10;;;0.52;;
81273;SDS011;70753;47.908;11.274;2023-12-20T09:55:39;0.93;;;0.60;;
81273;SDS011;70753;47.908;11.274;2023-12-20T09:58:06;0.82;;;0.60;;
81273;SDS011;70753;47.908;11.274;2023-12-20T10:00:32;0.93;;;0.70;;
81273;SDS011;70753;47.908;11.274;2023-12-20T10:03:00;1.02;;;0.65;;
81273;SDS011;70753;47.908;11.274;2023-12-20T10:05:26;0.60;;;0.60;;
81273;SDS011;70753;47.908;11.274;2023-12-20T10:07:53;1.10;;;0.63;;
81273;SDS011;70753;47.908;11.274;2023-12-20T10:10:18;1.02;;;0.70;;
81273;SDS011;70753;47.908;11.274;2023-12-20T10:12:46;0.60;;;0.60;;
81273;SDS011;70753;47.908;11.274;2023-12-20T10:15:26;1.65;;;0.70;;
81273;SDS011;70753;47.908;11.274;2023-12-20T10:17:51;2.50;;;0.52;;
81273;SDS011;70753;47.908;11.274;2023-12-20T10:20:18;0.70;;;0.50;;
81273;SDS011;70753;47.908;11.274;2023-12-20T10:22:43;1.13;;;0.73;;
81273;SDS011;70753;47.908;11.274;2023-12-20T10:25:09;0.60;;;0.60;;
81273;SDS011;70753;47.908;11.274;2023-12-20T10:27:34;0.60;;;0.60;;
81273;SDS011;70753;47.908;11.274;2023-12-20T10:30:00;2.08;;;0.70;;
81273;SDS011;70753;47.908;11.274;2023-12-20T10:32:25;1.00;;;0.60;;
81273;SDS011;70753;47.908;11.274;2023-12-20T10:34:52;0.47;;;0.47;;
81273;SDS011;70753;47.908;11.274;2023-12-20T10:37:19;0.90;;;0.60;;
81273;SDS011;70753;47.908;11.274;2023-12-20T10:39:46;1.27;;;0.70;;
81273;SDS011;70753;47.908;11.274;2023-12-20T10:42:14;0.50;;;0.50;;
81273;SDS011;70753;47.908;11.274;2023-12-20T10:44:41;0.70;;;0.55;;
81273;SDS011;70753;47.908;11.274;2023-12-20T10:47:07;0.60;;;0.60;;
81273;SDS011;70753;47.908;11.274;2023-12-20T10:49:34;1.02;;;0.68;;
81273;SDS011;70753;47.908;11.274;2023-12-20T10:52:01;0.77;;;0.50;;
81273;SDS011;70753;47.908;11.274;2023-12-20T10:54:30;0.90;;;0.60;;
81273;SDS011;70753;47.908;11.274;2023-12-20T10:56:55;1.35;;;0.70;;
81273;SDS011;70753;47.908;11.274;2023-12-20T10:59:23;0.65;;;0.50;;
81273;SDS011;70753;47.908;11.274;2023-12-20T11:01:49;0.95;;;0.60;;
81273;SDS011;70753;47.908;11.274;2023-12-20T11:04:15;0.75;;;0.50;;
81273;SDS011;70753;47.908;11.274;2023-12-20T11:06:46;1.10;;;0.60;;
81273;SDS011;70753;47.908;11.274;2023-12-20T11:09:16;0.73;;;0.55;;
81273;SDS011;70753;47.908;11.274;2023-12-20T11:11:52;1.48;;;0.70;;
81273;SDS011;70753;47.908;11.274;2023-12-20T11:14:27;1.25;;;0.70;;
81273;SDS011;70753;47.908;11.274;2023-12-20T11:17:06;1.83;;;0.73;;
81273;SDS011;70753;47.908;11.274;2023-12-20T11:19:32;0.52;;;0.50;;
81273;SDS011;70753;47.908;11.274;2023-12-20T11:21:57;4.22;;;0.93;;
81273;SDS011;70753;47.908;11.274;2023-12-20T11:24:22;0.90;;;0.43;;
81273;SDS011;70753;47.908;11.274;2023-12-20T11:26:48;0.77;;;0.50;;
81273;SDS011;70753;47.908;11.274;2023-12-20T11:29:30;1.85;;;0.70;;
81273;SDS011;70753;47.908;11.274;2023-12-20T11:31:57;0.52;;;0.52;;
81273;SDS011;70753;47.908;11.274;2023-12-20T11:34:26;3.53;;;1.35;;
81273;SDS011;70753;47.908;11.274;2023-12-20T11:36:56;0.75;;;0.60;;
81273;SDS011;70753;47.908;11.274;2023-12-20T11:39:22;0.95;;;0.70;;
81273;SDS011;70753;47.908;11.274;2023-12-20T11:41:48;1.10;;;0.60;;
81273;SDS011;70753;47.908;11.274;2023-12-20T11:44:14;1.88;;;0.90;;
81273;SDS011;70753;47.908;11.274;2023-12-20T11:46:43;1.40;;;0.70;;
81273;SDS011;70753;47.908;11.274;2023-12-20T11:49:09;1.33;;;0.65;;
81273;SDS011;70753;47.908;11.274;2023-12-20T11:51:35;3.38;;;1.40;;
81273;SDS011;70753;47.908;11.274;2023-12-20T11:54:05;1.65;;;0.80;;
81273;SDS011;70753;47.908;11.274;2023-12-20T11:56:31;0.55;;;0.52;;
81273;SDS011;70753;47.908;11.274;2023-12-20T11:58:57;1.33;;;0.60;;
81273;SDS011;70753;47.908;11.274;2023-12-20T12:01:22;2.10;;;1.00;;
81273;SDS011;70753;47.908;11.274;2023-12-20T12:03:49;1.50;;;0.82;;
81273;SDS011;70753;47.908;11.274;2023-12-20T12:06:27;2.88;;;1.05;;
81273;SDS011;70753;47.908;11.274;2023-12-20T12:08:52;1.15;;;0.80;;
81273;SDS011;70753;47.908;11.274;2023-12-20T12:11:19;1.75;;;1.13;;
81273;SDS011;70753;47.908;11.274;2023-12-20T12:13:45;0.75;;;0.60;;
81273;SDS011;70753;47.908;11.274;2023-12-20T12:16:10;2.03;;;1.05;;
81273;SDS011;70753;47.908;11.274;2023-12-20T12:18:35;1.55;;;0.77;;
81273;SDS011;70753;47.908;11.274;2023-12-20T12:21:04;2.53;;;1.17;;
81273;SDS011;70753;47.908;11.274;2023-12-20T12:23:29;1.75;;;1.00;;
81273;SDS011;70753;47.908;11.274;2023-12-20T12:25:54;2.97;;;1.00;;
81273;SDS011;70753;47.908;11.274;2023-12-20T12:28:20;2.58;;;1.30;;
81273;SDS011;70753;47.908;11.274;2023-12-20T12:30:55;2.28;;;1.13;;
81273;SDS011;70753;47.908;11.274;2023-12-20T12:33:21;2.63;;;1.02;;
81273;SDS011;70753;47.908;11.274;2023-12-20T12:35:46;2.05;;;0.90;;
81273;SDS011;70753;47.908;11.274;2023-12-20T12:38:14;1.45;;;0.90;;
81273;SDS011;70753;47.908;11.274;2023-12-20T12:40:40;3.70;;;1.60;;
81273;SDS011;70753;47.908;11.274;2023-12-20T12:43:05;3.40;;;1.50;;
81273;SDS011;70753;47.908;11.274;2023-12-20T12:45:30;1.25;;;0.80;;
81273;SDS011;70753;47.908;11.274;2023-12-20T12:47:56;2.03;;;0.85;;
81273;SDS011;70753;47.908;11.274;2023-12-20T12:50:21;1.73;;;0.90;;
81273;SDS011;70753;47.908;11.274;2023-12-20T12:52:46;3.08;;;1.40;;
81273;SDS011;70753;47.908;11.274;2023-12-20T12:55:13;1.95;;;1.00;;
81273;SDS011;70753;47.908;11.274;2023-12-20T12:57:38;2.50;;;1.20;;
81273;SDS011;70753;47.908;11.274;2023-12-20T13:00:05;2.20;;;1.08;;
81273;SDS011;70753;47.908;11.274;2023-12-20T13:02:32;2.45;;;1.30;;
81273;SDS011;70753;47.908;11.274;2023-12-20T13:04:57;2.75;;;1.10;;
81273;SDS011;70753;47.908;11.274;2023-12-20T13:07:23;2.55;;;1.17;;
81273;SDS011;70753;47.908;11.274;2023-12-20T13:09:48;2.42;;;1.10;;
81273;SDS011;70753;47.908;11.274;2023-12-20T13:12:15;2.58;;;1.10;;
81273;SDS011;70753;47.908;11.274;2023-12-20T13:14:40;2.45;;;1.05;;
81273;SDS011;70753;47.908;11.274;2023-12-20T13:17:06;1.63;;;0.93;;
81273;SDS011;70753;47.908;11.274;2023-12-20T13:19:31;2.55;;;1.23;;
81273;SDS011;70753;47.908;11.274;2023-12-20T13:21:57;2.38;;;1.20;;
81273;SDS011;70753;47.908;11.274;2023-12-20T13:24:23;2.78;;;1.20;;
81273;SDS011;70753;47.908;11.274;2023-12-20T13:26:48;2.20;;;1.10;;
81273;SDS011;70753;47.908;11.274;2023-12-20T13:29:15;2.80;;;1.30;;
81273;SDS011;70753;47.908;11.274;2023-12-20T13:31:40;3.15;;;1.17;;
81273;SDS011;70753;47.908;11.274;2023-12-20T13:34:06;2.67;;;1.10;;
81273;SDS011;70753;47.908;11.274;2023-12-20T13:36:31;2.55;;;1.30;;
81273;SDS011;70753;47.908;11.274;2023-12-20T13:38:57;2.25;;;1.25;;
81273;SDS011;70753;47.908;11.274;2023-12-20T13:41:22;2.75;;;1.20;;
81273;SDS011;70753;47.908;11.274;2023-12-20T13:43:48;2.20;;;1.00;;
81273;SDS011;70753;47.908;11.274;2023-12-20T13:46:14;2.50;;;1.05;;
81273;SDS011;70753;47.908;11.274;2023-12-20T13:48:40;2.17;;;1.10;;
81273;SDS011;70753;47.908;11.274;2023-12-20T13:51:05;3.15;;;1.50;;
81273;SDS011;70753;47.908;11.274;2023-12-20T13:53:31;2.42;;;1.20;;
81273;SDS011;70753;47.908;11.274;2023-12-20T13:55:56;2.22;;;1.00;;
81273;SDS011;70753;47.908;11.274;2023-12-20T13:58:21;4.18;;;1.48;;
81273;SDS011;70753;47.908;11.274;2023-12-20T14:00:47;2.35;;;1.10;;
81273;SDS011;70753;47.908;11.274;2023-12-20T14:03:14;2.78;;;1.30;;
81273;SDS011;70753;47.908;11.274;2023-12-20T14:05:40;2.42;;;1.15;;
81273;SDS011;70753;47.908;11.274;2023-12-20T14:08:06;2.40;;;1.10;;
81273;SDS011;70753;47.908;11.274;2023-12-20T14:10:31;3.13;;;1.10;;
81273;SDS011;70753;47.908;11.274;2023-12-20T14:12:57;1.77;;;0.90;;
81273;SDS011;70753;47.908;11.274;2023-12-20T14:15:22;2.42;;;1.30;;
81273;SDS011;70753;47.908;11.274;2023-12-20T14:17:48;2.38;;;1.05;;
81273;SDS011;70753;47.908;11.274;2023-12-20T14:20:14;2.53;;;1.10;;
81273;SDS011;70753;47.908;11.274;2023-12-20T14:22:40;1.83;;;0.98;;
81273;SDS011;70753;47.908;11.274;2023-12-20T14:25:05;2.67;;;1.00;;